createdAt,value
2022-08-03T09:14:45.384Z,30.74
2022-08-03T09:17:25.301Z,30.84
2022-08-03T09:20:56.581Z,30.78
2022-08-03T09:23:51.906Z,30.94
2022-08-03T09:26:22.773Z,31.19
2022-08-03T09:29:06.917Z,31.20
2022-08-03T09:31:43.771Z,31.27
2022-08-03T09:34:24.603Z,31.43
2022-08-03T09:37:12.714Z,31.61
2022-08-03T09:39:46.188Z,31.44
2022-08-03T09:42:41.409Z,31.76
2022-08-03T09:45:26.732Z,32.11
2022-08-03T09:47:56.273Z,32.26
2022-08-03T09:50:57.039Z,32.48
2022-08-03T09:53:27.780Z,32.51
2022-08-03T09:56:35.082Z,32.56
2022-08-03T09:59:35.329Z,32.89
2022-08-03T10:02:31.952Z,33.15
2022-08-03T10:05:47.356Z,32.91
2022-08-03T10:08:42.187Z,32.94
2022-08-03T10:11:36.208Z,32.93
2022-08-03T10:14:46.522Z,32.93
2022-08-03T10:17:29.727Z,32.85
2022-08-03T10:20:17.927Z,32.94
2022-08-03T10:22:48.497Z,33.34
2022-08-03T10:25:35.199Z,33.75
2022-08-03T10:28:04.390Z,34.01
2022-08-03T10:31:07.479Z,34.23
2022-08-03T10:33:51.912Z,34.16
2022-08-03T10:36:45.562Z,34.42
2022-08-03T10:39:31.439Z,34.79
2022-08-03T10:42:02.441Z,34.93
2022-08-03T10:44:47.094Z,35.11
2022-08-03T10:47:26.193Z,34.92
2022-08-03T10:50:02.018Z,34.54
2022-08-03T10:52:49.201Z,34.43
2022-08-03T10:55:52.921Z,34.21
2022-08-03T10:58:56.823Z,34.65
2022-08-03T11:02:00.338Z,34.94
2022-08-03T11:05:14.038Z,34.96
2022-08-03T11:07:41.756Z,34.49
2022-08-03T11:11:30.402Z,34.32
2022-08-03T11:14:09.301Z,34.38
2022-08-03T11:16:55.630Z,34.93
2022-08-03T11:19:56.504Z,35.06
2022-08-03T11:23:12.008Z,34.91
2022-08-03T11:26:14.689Z,33.71
2022-08-03T11:29:04.090Z,33.14
2022-08-03T11:31:52.042Z,32.74
2022-08-03T11:35:03.528Z,33.20
2022-08-03T11:38:33.824Z,33.40
2022-08-03T11:41:18.976Z,34.03
2022-08-03T11:44:03.048Z,34.72
2022-08-03T11:47:05.084Z,35.38
2022-08-03T11:49:52.988Z,36.01
2022-08-03T11:52:52.471Z,36.13
2022-08-03T11:55:40.619Z,36.46
2022-08-03T11:59:15.213Z,35.98
2022-08-03T12:01:41.998Z,36.05
2022-08-03T12:04:11.932Z,35.70
2022-08-03T12:06:55.236Z,35.84
2022-08-03T12:09:26.042Z,36.08
2022-08-03T12:11:54.932Z,36.96
2022-08-03T12:15:17.150Z,37.34
2022-08-03T12:17:49.819Z,37.84
2022-08-03T12:20:31.267Z,36.70
2022-08-03T12:23:05.911Z,36.47
2022-08-03T12:25:43.264Z,37.29
2022-08-03T12:28:45.002Z,37.55
2022-08-03T12:31:36.960Z,38.20
2022-08-03T12:34:09.428Z,38.61
2022-08-03T12:36:38.331Z,38.54
2022-08-03T12:39:30.845Z,38.42
2022-08-03T12:42:27.216Z,38.09
2022-08-03T12:45:22.491Z,38.60
2022-08-03T12:48:14.479Z,38.89
2022-08-03T12:50:53.528Z,38.14
2022-08-03T12:53:33.956Z,37.98
2022-08-03T12:56:06.403Z,37.08
2022-08-03T12:58:42.887Z,36.25
2022-08-03T13:01:35.772Z,36.23
2022-08-03T13:04:37.623Z,36.79
2022-08-03T13:07:15.541Z,37.01
2022-08-03T13:10:40.427Z,37.92
2022-08-03T13:13:08.156Z,38.38
2022-08-03T13:15:48.194Z,38.68
2022-08-03T13:18:31.741Z,38.52
2022-08-03T13:21:00.523Z,38.48
2022-08-03T13:23:35.991Z,39.09
2022-08-03T13:26:08.677Z,37.69
2022-08-03T13:28:37.634Z,37.47
2022-08-03T13:31:07.208Z,37.45
2022-08-03T13:33:40.443Z,37.21
2022-08-03T13:36:09.105Z,38.00
2022-08-03T13:38:44.020Z,38.06
2022-08-03T13:41:18.808Z,37.16
2022-08-03T13:44:29.326Z,37.57
2022-08-03T13:47:15.800Z,38.00
2022-08-03T13:50:00.189Z,38.46
2022-08-03T13:52:35.570Z,38.51
2022-08-03T13:55:06.782Z,38.64
2022-08-03T13:58:04.030Z,39.08
2022-08-03T14:00:34.779Z,39.21
2022-08-03T14:03:13.251Z,39.99
2022-08-03T14:05:44.860Z,40.48
2022-08-03T14:08:15.561Z,40.73
2022-08-03T14:10:50.637Z,39.61
2022-08-03T14:13:23.108Z,39.39
2022-08-03T14:15:52.981Z,39.74
2022-08-03T14:18:28.872Z,40.38
2022-08-03T14:21:06.599Z,40.85
2022-08-03T14:23:42.642Z,39.97
2022-08-03T14:26:29.284Z,40.68
2022-08-03T14:28:58.677Z,40.86
2022-08-03T14:32:11.246Z,41.36
2022-08-03T14:34:20.912Z,41.78
2022-08-03T14:36:52.137Z,42.16
2022-08-03T14:39:58.260Z,41.71
2022-08-03T14:42:23.057Z,41.91
2022-08-03T14:45:01.482Z,41.64
2022-08-03T14:50:34.053Z,41.73
